sensor_id;sensor_type;location;lat;lon;timestamp;P1;durP1;ratioP1;P2;durP2;ratioP2
52542;SDS011;38449;52.696;6.186;2023-12-22T00:00:35;14.90;;;3.30;;
52542;SDS011;38449;52.696;6.186;2023-12-22T00:03:02;11.40;;;2.90;;
52542;SDS011;38449;52.696;6.186;2023-12-22T00:05:28;14.50;;;3.45;;
52542;SDS011;38449;52.696;6.186;2023-12-22T00:07:55;15.35;;;2.70;;
52542;SDS011;38449;52.696;6.186;2023-12-22T00:10:21;15.85;;;3.05;;
52542;SDS011;38449;52.696;6.186;2023-12-22T00:12:48;13.25;;;2.90;;
52542;SDS011;38449;52.696;6.186;2023-12-22T00:15:15;17.15;;;2.88;;
52542;SDS011;38449;52.696;6.186;2023-12-22T00:17:41;11.77;;;3.35;;
52542;SDS011;38449;52.696;6.186;2023-12-22T00:20:07;14.05;;;2.50;;
52542;SDS011;38449;52.696;6.186;2023-12-22T00:22:38;10.20;;;2.65;;
52542;SDS011;38449;52.696;6.186;2023-12-22T00:25:05;11.27;;;2.78;;
52542;SDS011;38449;52.696;6.186;2023-12-22T00:27:34;13.75;;;3.38;;
52542;SDS011;38449;52.696;6.186;2023-12-22T00:30:00;13.68;;;2.95;;
52542;SDS011;38449;52.696;6.186;2023-12-22T00:32:27;13.30;;;2.58;;
52542;SDS011;38449;52.696;6.186;2023-12-22T00:34:53;9.75;;;2.65;;
52542;SDS011;38449;52.696;6.186;2023-12-22T00:37:19;11.13;;;3.03;;
52542;SDS011;38449;52.696;6.186;2023-12-22T00:39:46;11.38;;;3.08;;
52542;SDS011;38449;52.696;6.186;2023-12-22T00:42:12;17.13;;;4.13;;
52542;SDS011;38449;52.696;6.186;2023-12-22T00:44:38;16.63;;;3.88;;
52542;SDS011;38449;52.696;6.186;2023-12-22T00:47:06;13.88;;;3.50;;
52542;SDS011;38449;52.696;6.186;2023-12-22T00:49:32;18.08;;;4.22;;
52542;SDS011;38449;52.696;6.186;2023-12-22T00:51:59;13.70;;;2.92;;
52542;SDS011;38449;52.696;6.186;2023-12-22T00:54:26;17.75;;;3.28;;
52542;SDS011;38449;52.696;6.186;2023-12-22T00:56:56;13.23;;;2.85;;
52542;SDS011;38449;52.696;6.186;2023-12-22T00:59:22;13.45;;;3.00;;
52542;SDS011;38449;52.696;6.186;2023-12-22T01:01:48;15.20;;;3.45;;
52542;SDS011;38449;52.696;6.186;2023-12-22T01:04:15;13.90;;;3.78;;
52542;SDS011;38449;52.696;6.186;2023-12-22T01:06:41;12.02;;;2.90;;
52542;SDS011;38449;52.696;6.186;2023-12-22T01:09:07;18.02;;;3.55;;
52542;SDS011;38449;52.696;6.186;2023-12-22T01:11:34;11.23;;;3.08;;
52542;SDS011;38449;52.696;6.186;2023-12-22T01:14:00;12.57;;;2.97;;
52542;SDS011;38449;52.696;6.186;2023-12-22T01:16:26;12.88;;;3.03;;
52542;SDS011;38449;52.696;6.186;2023-12-22T01:18:53;13.52;;;2.53;;
52542;SDS011;38449;52.696;6.186;2023-12-22T01:21:19;11.43;;;2.97;;
52542;SDS011;38449;52.696;6.186;2023-12-22T01:23:45;11.75;;;2.42;;
52542;SDS011;38449;52.696;6.186;2023-12-22T01:26:12;13.63;;;2.63;;
52542;SDS011;38449;52.696;6.186;2023-12-22T01:28:39;10.50;;;2.65;;
52542;SDS011;38449;52.696;6.186;2023-12-22T01:31:05;12.73;;;2.45;;
52542;SDS011;38449;52.696;6.186;2023-12-22T01:33:31;8.85;;;2.40;;
52542;SDS011;38449;52.696;6.186;2023-12-22T01:35:58;14.27;;;3.88;;
52542;SDS011;38449;52.696;6.186;2023-12-22T01:38:24;9.32;;;2.90;;
52542;SDS011;38449;52.696;6.186;2023-12-22T01:40:50;11.38;;;3.35;;
52542;SDS011;38449;52.696;6.186;2023-12-22T01:43:17;8.80;;;2.90;;
52542;SDS011;38449;52.696;6.186;2023-12-22T01:45:48;11.85;;;2.63;;
52542;SDS011;38449;52.696;6.186;2023-12-22T01:48:23;13.15;;;3.72;;
52542;SDS011;38449;52.696;6.186;2023-12-22T01:50:50;12.95;;;3.17;;
52542;SDS011;38449;52.696;6.186;2023-12-22T01:53:19;13.23;;;3.03;;
52542;SDS011;38449;52.696;6.186;2023-12-22T01:55:46;14.38;;;2.95;;
52542;SDS011;38449;52.696;6.186;2023-12-22T01:58:16;10.73;;;3.05;;
52542;SDS011;38449;52.696;6.186;2023-12-22T02:00:45;12.23;;;2.50;;
52542;SDS011;38449;52.696;6.186;2023-12-22T02:03:12;11.25;;;2.80;;
52542;SDS011;38449;52.696;6.186;2023-12-22T02:05:43;14.27;;;2.90;;
52542;SDS011;38449;52.696;6.186;2023-12-22T02:08:10;16.08;;;2.85;;
52542;SDS011;38449;52.696;6.186;2023-12-22T02:10:37;12.57;;;2.63;;
52542;SDS011;38449;52.696;6.186;2023-12-22T02:13:04;11.25;;;3.33;;
52542;SDS011;38449;52.696;6.186;2023-12-22T02:15:31;11.25;;;2.20;;
52542;SDS011;38449;52.696;6.186;2023-12-22T02:17:59;10.93;;;2.28;;
52542;SDS011;38449;52.696;6.186;2023-12-22T02:20:33;7.45;;;2.28;;
52542;SDS011;38449;52.696;6.186;2023-12-22T02:23:00;11.75;;;2.33;;
52542;SDS011;38449;52.696;6.186;2023-12-22T02:25:26;8.98;;;2.72;;
52542;SDS011;38449;52.696;6.186;2023-12-22T02:27:53;7.10;;;1.90;;
52542;SDS011;38449;52.696;6.186;2023-12-22T02:33:24;5.07;;;1.17;;
52542;SDS011;38449;52.696;6.186;2023-12-22T02:35:52;3.60;;;1.10;;
52542;SDS011;38449;52.696;6.186;2023-12-22T02:38:23;5.57;;;1.30;;
52542;SDS011;38449;52.696;6.186;2023-12-22T02:40:51;5.63;;;1.92;;
52542;SDS011;38449;52.696;6.186;2023-12-22T02:43:17;5.03;;;1.70;;
52542;SDS011;38449;52.696;6.186;2023-12-22T02:45:44;6.63;;;1.48;;
52542;SDS011;38449;52.696;6.186;2023-12-22T02:48:10;6.97;;;1.50;;
52542;SDS011;38449;52.696;6.186;2023-12-22T02:50:37;4.40;;;1.38;;
52542;SDS011;38449;52.696;6.186;2023-12-22T02:53:03;4.78;;;1.60;;
52542;SDS011;38449;52.696;6.186;2023-12-22T02:55:29;6.25;;;1.15;;
52542;SDS011;38449;52.696;6.186;2023-12-22T02:57:55;6.35;;;1.45;;
52542;SDS011;38449;52.696;6.186;2023-12-22T03:00:22;7.90;;;2.05;;
52542;SDS011;38449;52.696;6.186;2023-12-22T03:02:48;6.88;;;3.17;;
52542;SDS011;38449;52.696;6.186;2023-12-22T03:05:14;6.80;;;1.75;;
52542;SDS011;38449;52.696;6.186;2023-12-22T03:07:41;9.75;;;2.42;;
52542;SDS011;38449;52.696;6.186;2023-12-22T03:10:07;6.32;;;1.75;;
52542;SDS011;38449;52.696;6.186;2023-12-22T03:12:34;7.07;;;2.08;;
52542;SDS011;38449;52.696;6.186;2023-12-22T03:15:00;7.10;;;1.55;;
52542;SDS011;38449;52.696;6.186;2023-12-22T03:17:27;11.57;;;2.30;;
52542;SDS011;38449;52.696;6.186;2023-12-22T03:19:53;7.28;;;1.80;;
52542;SDS011;38449;52.696;6.186;2023-12-22T03:22:19;7.57;;;2.35;;
52542;SDS011;38449;52.696;6.186;2023-12-22T03:24:46;4.63;;;1.23;;
52542;SDS011;38449;52.696;6.186;2023-12-22T03:27:12;4.47;;;1.85;;
52542;SDS011;38449;52.696;6.186;2023-12-22T03:29:45;3.45;;;1.27;;
52542;SDS011;38449;52.696;6.186;2023-12-22T03:32:11;5.78;;;1.67;;
52542;SDS011;38449;52.696;6.186;2023-12-22T03:34:40;5.82;;;1.60;;
52542;SDS011;38449;52.696;6.186;2023-12-22T03:37:07;5.75;;;1.63;;
52542;SDS011;38449;52.696;6.186;2023-12-22T03:39:38;5.97;;;1.52;;
52542;SDS011;38449;52.696;6.186;2023-12-22T03:42:05;8.02;;;2.15;;
52542;SDS011;38449;52.696;6.186;2023-12-22T03:44:31;6.25;;;1.95;;
52542;SDS011;38449;52.696;6.186;2023-12-22T03:46:58;7.40;;;1.50;;
52542;SDS011;38449;52.696;6.186;2023-12-22T03:49:24;9.75;;;2.00;;
52542;SDS011;38449;52.696;6.186;2023-12-22T03:51:50;8.45;;;2.05;;
52542;SDS011;38449;52.696;6.186;2023-12-22T03:54:17;7.25;;;1.73;;
52542;SDS011;38449;52.696;6.186;2023-12-22T03:56:43;10.45;;;2.20;;
52542;SDS011;38449;52.696;6.186;2023-12-22T03:59:10;10.15;;;2.75;;
52542;SDS011;38449;52.696;6.186;2023-12-22T04:01:37;9.52;;;2.50;;
52542;SDS011;38449;52.696;6.186;2023-12-22T04:04:06;11.52;;;2.45;;
52542;SDS011;38449;52.696;6.186;2023-12-22T04:06:37;12.93;;;2.28;;
52542;SDS011;38449;52.696;6.186;2023-12-22T04:09:04;15.25;;;2.80;;
52542;SDS011;38449;52.696;6.186;2023-12-22T04:11:32;19.30;;;3.75;;
52542;SDS011;38449;52.696;6.186;2023-12-22T04:14:00;8.95;;;1.98;;
52542;SDS011;38449;52.696;6.186;2023-12-22T04:16:27;13.15;;;3.13;;
52542;SDS011;38449;52.696;6.186;2023-12-22T04:18:56;10.32;;;3.45;;
52542;SDS011;38449;52.696;6.186;2023-12-22T04:21:22;12.73;;;2.85;;
52542;SDS011;38449;52.696;6.186;2023-12-22T04:23:50;15.38;;;3.03;;
52542;SDS011;38449;52.696;6.186;2023-12-22T04:26:16;12.98;;;3.35;;
52542;SDS011;38449;52.696;6.186;2023-12-22T04:28:43;14.93;;;3.75;;
52542;SDS011;38449;52.696;6.186;2023-12-22T04:31:09;11.57;;;2.47;;
52542;SDS011;38449;52.696;6.186;2023-12-22T04:33:37;15.48;;;2.97;;
52542;SDS011;38449;52.696;6.186;2023-12-22T04:36:05;10.45;;;2.75;;
52542;SDS011;38449;52.696;6.186;2023-12-22T04:38:32;10.10;;;3.15;;
52542;SDS011;38449;52.696;6.186;2023-12-22T04:40:58;15.02;;;2.85;;
52542;SDS011;38449;52.696;6.186;2023-12-22T04:43:24;14.90;;;2.85;;
52542;SDS011;38449;52.696;6.186;2023-12-22T04:45:52;11.35;;;3.03;;
52542;SDS011;38449;52.696;6.186;2023-12-22T04:48:19;14.30;;;3.33;;
52542;SDS011;38449;52.696;6.186;2023-12-22T04:50:45;11.05;;;2.55;;
52542;SDS011;38449;52.696;6.186;2023-12-22T04:53:13;9.75;;;2.50;;
52542;SDS011;38449;52.696;6.186;2023-12-22T04:55:39;14.45;;;3.95;;
52542;SDS011;38449;52.696;6.186;2023-12-22T04:58:07;9.35;;;2.55;;
52542;SDS011;38449;52.696;6.186;2023-12-22T05:00:34;14.13;;;3.10;;
52542;SDS011;38449;52.696;6.186;2023-12-22T05:03:01;12.25;;;2.53;;
52542;SDS011;38449;52.696;6.186;2023-12-22T05:05:28;11.15;;;2.45;;
52542;SDS011;38449;52.696;6.186;2023-12-22T05:07:56;13.82;;;2.78;;
52542;SDS011;38449;52.696;6.186;2023-12-22T05:10:22;15.02;;;3.00;;
52542;SDS011;38449;52.696;6.186;2023-12-22T05:12:49;11.07;;;2.67;;
52542;SDS011;38449;52.696;6.186;2023-12-22T05:15:15;16.88;;;2.80;;
52542;SDS011;38449;52.696;6.186;2023-12-22T05:17:42;16.27;;;2.80;;
52542;SDS011;38449;52.696;6.186;2023-12-22T05:20:09;15.15;;;2.83;;
52542;SDS011;38449;52.696;6.186;2023-12-22T05:22:36;12.85;;;3.35;;
52542;SDS011;38449;52.696;6.186;2023-12-22T05:25:03;10.75;;;2.83;;
52542;SDS011;38449;52.696;6.186;2023-12-22T05:27:29;16.20;;;2.60;;
52542;SDS011;38449;52.696;6.186;2023-12-22T05:29:55;13.85;;;2.80;;
52542;SDS011;38449;52.696;6.186;2023-12-22T05:32:27;11.45;;;2.90;;
52542;SDS011;38449;52.696;6.186;2023-12-22T05:34:53;11.57;;;2.92;;
52542;SDS011;38449;52.696;6.186;2023-12-22T05:37:22;10.35;;;2.90;;
52542;SDS011;38449;52.696;6.186;2023-12-22T05:39:49;15.40;;;3.05;;
52542;SDS011;38449;52.696;6.186;2023-12-22T05:42:17;12.48;;;2.95;;
52542;SDS011;38449;52.696;6.186;2023-12-22T05:44:43;15.52;;;2.95;;
52542;SDS011;38449;52.696;6.186;2023-12-22T05:47:12;15.10;;;3.33;;
52542;SDS011;38449;52.696;6.186;2023-12-22T05:49:40;18.63;;;3.70;;
52542;SDS011;38449;52.696;6.186;2023-12-22T05:52:06;13.40;;;3.10;;
52542;SDS011;38449;52.696;6.186;2023-12-22T05:54:35;18.67;;;3.55;;
52542;SDS011;38449;52.696;6.186;2023-12-22T05:57:07;15.27;;;2.70;;
52542;SDS011;38449;52.696;6.186;2023-12-22T05:59:33;16.48;;;3.05;;
52542;SDS011;38449;52.696;6.186;2023-12-22T06:02:01;16.40;;;3.60;;
52542;SDS011;38449;52.696;6.186;2023-12-22T06:04:28;17.08;;;4.20;;
52542;SDS011;38449;52.696;6.186;2023-12-22T06:06:55;16.27;;;2.95;;
52542;SDS011;38449;52.696;6.186;2023-12-22T06:09:21;21.08;;;4.45;;
52542;SDS011;38449;52.696;6.186;2023-12-22T06:11:48;13.13;;;2.65;;
52542;SDS011;38449;52.696;6.186;2023-12-22T06:14:14;14.23;;;3.28;;
52542;SDS011;38449;52.696;6.186;2023-12-22T06:16:46;14.13;;;2.55;;
52542;SDS011;38449;52.696;6.186;2023-12-22T06:19:12;13.05;;;3.30;;
52542;SDS011;38449;52.696;6.186;2023-12-22T06:21:39;11.73;;;2.70;;
52542;SDS011;38449;52.696;6.186;2023-12-22T06:24:05;15.15;;;3.33;;
52542;SDS011;38449;52.696;6.186;2023-12-22T06:26:34;14.63;;;3.13;;
52542;SDS011;38449;52.696;6.186;2023-12-22T06:29:05;18.50;;;2.72;;
52542;SDS011;38449;52.696;6.186;2023-12-22T06:31:31;16.52;;;3.55;;
52542;SDS011;38449;52.696;6.186;2023-12-22T06:33:57;21.25;;;3.20;;
52542;SDS011;38449;52.696;6.186;2023-12-22T06:36:28;11.88;;;3.17;;
52542;SDS011;38449;52.696;6.186;2023-12-22T06:38:55;23.77;;;3.70;;
52542;SDS011;38449;52.696;6.186;2023-12-22T06:41:24;14.93;;;3.13;;
52542;SDS011;38449;52.696;6.186;2023-12-22T06:43:51;14.60;;;2.95;;
52542;SDS011;38449;52.696;6.186;2023-12-22T06:46:20;17.10;;;3.05;;
52542;SDS011;38449;52.696;6.186;2023-12-22T06:48:54;11.40;;;2.80;;
52542;SDS011;38449;52.696;6.186;2023-12-22T06:51:25;10.57;;;2.85;;
52542;SDS011;38449;52.696;6.186;2023-12-22T06:53:53;15.50;;;3.22;;
52542;SDS011;38449;52.696;6.186;2023-12-22T06:56:27;9.30;;;2.85;;
52542;SDS011;38449;52.696;6.186;2023-12-22T06:58:55;11.95;;;2.85;;
52542;SDS011;38449;52.696;6.186;2023-12-22T07:01:29;14.45;;;3.28;;
52542;SDS011;38449;52.696;6.186;2023-12-22T07:03:58;15.15;;;2.60;;
52542;SDS011;38449;52.696;6.186;2023-12-22T07:06:29;16.70;;;3.22;;
52542;SDS011;38449;52.696;6.186;2023-12-22T07:11:41;13.10;;;3.03;;
52542;SDS011;38449;52.696;6.186;2023-12-22T07:14:09;15.30;;;3.13;;
52542;SDS011;38449;52.696;6.186;2023-12-22T07:16:35;16.45;;;2.67;;
52542;SDS011;38449;52.696;6.186;2023-12-22T07:19:02;13.43;;;2.55;;
52542;SDS011;38449;52.696;6.186;2023-12-22T07:21:31;11.35;;;2.40;;
52542;SDS011;38449;52.696;6.186;2023-12-22T07:23:59;9.88;;;2.10;;
52542;SDS011;38449;52.696;6.186;2023-12-22T07:26:27;10.75;;;2.42;;
52542;SDS011;38449;52.696;6.186;2023-12-22T07:28:53;11.95;;;2.83;;
52542;SDS011;38449;52.696;6.186;2023-12-22T07:31:20;19.15;;;3.38;;
52542;SDS011;38449;52.696;6.186;2023-12-22T07:33:46;10.48;;;2.38;;
52542;SDS011;38449;52.696;6.186;2023-12-22T07:36:14;10.48;;;2.30;;
52542;SDS011;38449;52.696;6.186;2023-12-22T07:38:40;13.25;;;2.55;;
52542;SDS011;38449;52.696;6.186;2023-12-22T07:41:07;13.88;;;2.90;;
52542;SDS011;38449;52.696;6.186;2023-12-22T07:43:34;16.65;;;3.25;;
52542;SDS011;38449;52.696;6.186;2023-12-22T07:46:02;13.57;;;2.90;;
52542;SDS011;38449;52.696;6.186;2023-12-22T07:48:28;14.20;;;3.53;;
52542;SDS011;38449;52.696;6.186;2023-12-22T07:50:56;16.30;;;3.13;;
52542;SDS011;38449;52.696;6.186;2023-12-22T07:53:22;18.05;;;3.65;;
52542;SDS011;38449;52.696;6.186;2023-12-22T07:55:49;15.07;;;2.92;;
52542;SDS011;38449;52.696;6.186;2023-12-22T07:58:16;16.77;;;3.25;;
52542;SDS011;38449;52.696;6.186;2023-12-22T08:00:44;10.52;;;2.42;;
52542;SDS011;38449;52.696;6.186;2023-12-22T08:03:12;10.18;;;2.55;;
52542;SDS011;38449;52.696;6.186;2023-12-22T08:05:38;13.90;;;3.15;;
52542;SDS011;38449;52.696;6.186;2023-12-22T08:08:05;14.63;;;3.03;;
52542;SDS011;38449;52.696;6.186;2023-12-22T08:10:31;15.55;;;2.78;;
52542;SDS011;38449;52.696;6.186;2023-12-22T08:12:57;11.18;;;2.55;;
52542;SDS011;38449;52.696;6.186;2023-12-22T08:15:24;11.38;;;2.40;;
52542;SDS011;38449;52.696;6.186;2023-12-22T08:17:50;15.27;;;2.95;;
52542;SDS011;38449;52.696;6.186;2023-12-22T08:20:18;11.30;;;2.47;;
52542;SDS011;38449;52.696;6.186;2023-12-22T08:22:48;10.80;;;2.17;;
52542;SDS011;38449;52.696;6.186;2023-12-22T08:25:19;15.75;;;3.25;;
52542;SDS011;38449;52.696;6.186;2023-12-22T08:27:48;11.10;;;2.30;;
52542;SDS011;38449;52.696;6.186;2023-12-22T08:30:15;10.68;;;2.50;;
52542;SDS011;38449;52.696;6.186;2023-12-22T08:32:41;7.72;;;2.13;;
52542;SDS011;38449;52.696;6.186;2023-12-22T08:35:08;7.25;;;2.03;;
52542;SDS011;38449;52.696;6.186;2023-12-22T08:37:35;11.02;;;2.30;;
52542;SDS011;38449;52.696;6.186;2023-12-22T08:40:01;10.07;;;2.63;;
52542;SDS011;38449;52.696;6.186;2023-12-22T08:42:28;11.68;;;2.72;;
52542;SDS011;38449;52.696;6.186;2023-12-22T08:44:56;11.85;;;2.60;;
52542;SDS011;38449;52.696;6.186;2023-12-22T08:47:22;14.13;;;3.08;;
52542;SDS011;38449;52.696;6.186;2023-12-22T08:49:48;11.75;;;2.80;;
52542;SDS011;38449;52.696;6.186;2023-12-22T08:52:15;7.07;;;2.30;;
52542;SDS011;38449;52.696;6.186;2023-12-22T08:54:41;9.65;;;2.28;;
52542;SDS011;38449;52.696;6.186;2023-12-22T08:57:07;9.60;;;2.20;;
52542;SDS011;38449;52.696;6.186;2023-12-22T08:59:34;13.57;;;3.13;;
52542;SDS011;38449;52.696;6.186;2023-12-22T09:02:01;8.20;;;2.22;;
52542;SDS011;38449;52.696;6.186;2023-12-22T09:04:27;10.85;;;3.03;;
52542;SDS011;38449;52.696;6.186;2023-12-22T09:06:53;11.93;;;2.58;;
52542;SDS011;38449;52.696;6.186;2023-12-22T09:09:20;11.40;;;3.67;;
52542;SDS011;38449;52.696;6.186;2023-12-22T09:11:47;6.93;;;2.38;;
52542;SDS011;38449;52.696;6.186;2023-12-22T09:14:13;13.65;;;3.42;;
52542;SDS011;38449;52.696;6.186;2023-12-22T09:16:40;9.88;;;3.28;;
52542;SDS011;38449;52.696;6.186;2023-12-22T09:19:08;9.50;;;2.20;;
52542;SDS011;38449;52.696;6.186;2023-12-22T09:21:34;7.63;;;1.85;;
52542;SDS011;38449;52.696;6.186;2023-12-22T09:24:01;10.05;;;2.80;;
52542;SDS011;38449;52.696;6.186;2023-12-22T09:26:27;6.32;;;1.77;;
52542;SDS011;38449;52.696;6.186;2023-12-22T09:28:54;10.52;;;2.13;;
52542;SDS011;38449;52.696;6.186;2023-12-22T09:31:21;10.80;;;2.33;;
52542;SDS011;38449;52.696;6.186;2023-12-22T09:33:48;8.85;;;2.30;;
52542;SDS011;38449;52.696;6.186;2023-12-22T09:36:14;12.50;;;2.65;;
52542;SDS011;38449;52.696;6.186;2023-12-22T09:38:41;6.70;;;1.88;;
52542;SDS011;38449;52.696;6.186;2023-12-22T09:41:07;8.20;;;2.13;;
52542;SDS011;38449;52.696;6.186;2023-12-22T09:43:34;9.23;;;2.00;;
52542;SDS011;38449;52.696;6.186;2023-12-22T09:46:03;9.70;;;2.10;;
52542;SDS011;38449;52.696;6.186;2023-12-22T09:48:31;7.47;;;2.08;;
52542;SDS011;38449;52.696;6.186;2023-12-22T09:50:59;5.40;;;1.90;;
52542;SDS011;38449;52.696;6.186;2023-12-22T09:53:27;4.22;;;1.60;;
52542;SDS011;38449;52.696;6.186;2023-12-22T09:55:56;6.90;;;1.70;;
52542;SDS011;38449;52.696;6.186;2023-12-22T09:58:25;3.08;;;1.17;;
52542;SDS011;38449;52.696;6.186;2023-12-22T10:00:51;6.97;;;2.28;;
52542;SDS011;38449;52.696;6.186;2023-12-22T10:03:19;5.53;;;1.80;;
52542;SDS011;38449;52.696;6.186;2023-12-22T10:05:47;5.75;;;1.90;;
52542;SDS011;38449;52.696;6.186;2023-12-22T10:08:13;5.85;;;1.70;;
52542;SDS011;38449;52.696;6.186;2023-12-22T10:10:41;5.65;;;1.90;;
52542;SDS011;38449;52.696;6.186;2023-12-22T10:13:08;2.00;;;1.10;;
52542;SDS011;38449;52.696;6.186;2023-12-22T10:15:40;2.03;;;0.98;;
52542;SDS011;38449;52.696;6.186;2023-12-22T10:18:07;2.97;;;0.98;;
52542;SDS011;38449;52.696;6.186;2023-12-22T10:20:35;1.25;;;0.77;;
52542;SDS011;38449;52.696;6.186;2023-12-22T10:23:02;2.88;;;0.95;;
52542;SDS011;38449;52.696;6.186;2023-12-22T10:25:29;2.97;;;0.98;;
52542;SDS011;38449;52.696;6.186;2023-12-22T10:27:56;2.72;;;0.90;;
52542;SDS011;38449;52.696;6.186;2023-12-22T10:30:22;2.38;;;0.70;;
52542;SDS011;38449;52.696;6.186;2023-12-22T10:32:52;1.52;;;0.70;;
52542;SDS011;38449;52.696;6.186;2023-12-22T10:35:21;1.17;;;0.70;;
52542;SDS011;38449;52.696;6.186;2023-12-22T10:37:49;2.15;;;0.77;;
52542;SDS011;38449;52.696;6.186;2023-12-22T10:40:19;2.50;;;0.77;;
52542;SDS011;38449;52.696;6.186;2023-12-22T10:42:46;2.08;;;0.70;;
52542;SDS011;38449;52.696;6.186;2023-12-22T10:45:12;3.40;;;1.05;;
52542;SDS011;38449;52.696;6.186;2023-12-22T10:47:39;2.00;;;1.10;;
52542;SDS011;38449;52.696;6.186;2023-12-22T10:50:06;1.92;;;1.00;;
52542;SDS011;38449;52.696;6.186;2023-12-22T10:52:33;2.60;;;0.77;;
52542;SDS011;38449;52.696;6.186;2023-12-22T10:55:00;2.58;;;1.02;;
52542;SDS011;38449;52.696;6.186;2023-12-22T10:57:26;2.28;;;0.90;;
52542;SDS011;38449;52.696;6.186;2023-12-22T10:59:56;2.60;;;1.00;;
52542;SDS011;38449;52.696;6.186;2023-12-22T11:02:26;2.40;;;1.00;;
52542;SDS011;38449;52.696;6.186;2023-12-22T11:04:57;1.40;;;0.75;;
52542;SDS011;38449;52.696;6.186;2023-12-22T11:07:32;3.35;;;1.27;;
52542;SDS011;38449;52.696;6.186;2023-12-22T11:10:04;3.42;;;1.20;;
52542;SDS011;38449;52.696;6.186;2023-12-22T11:12:33;1.60;;;0.65;;
52542;SDS011;38449;52.696;6.186;2023-12-22T11:15:02;2.28;;;0.90;;
52542;SDS011;38449;52.696;6.186;2023-12-22T11:17:32;5.78;;;1.42;;
52542;SDS011;38449;52.696;6.186;2023-12-22T11:19:59;2.20;;;1.00;;
52542;SDS011;38449;52.696;6.186;2023-12-22T11:22:26;2.33;;;0.88;;
52542;SDS011;38449;52.696;6.186;2023-12-22T11:24:57;2.47;;;1.05;;
52542;SDS011;38449;52.696;6.186;2023-12-22T11:27:26;2.95;;;0.77;;
52542;SDS011;38449;52.696;6.186;2023-12-22T11:29:54;3.92;;;1.02;;
52542;SDS011;38449;52.696;6.186;2023-12-22T11:32:21;1.15;;;0.63;;
52542;SDS011;38449;52.696;6.186;2023-12-22T11:34:47;5.10;;;1.00;;
52542;SDS011;38449;52.696;6.186;2023-12-22T11:37:15;2.28;;;0.90;;
52542;SDS011;38449;52.696;6.186;2023-12-22T11:39:42;3.83;;;1.05;;
52542;SDS011;38449;52.696;6.186;2023-12-22T11:42:19;2.47;;;0.80;;
52542;SDS011;38449;52.696;6.186;2023-12-22T11:44:55;3.85;;;0.88;;
52542;SDS011;38449;52.696;6.186;2023-12-22T11:47:24;2.70;;;1.10;;
52542;SDS011;38449;52.696;6.186;2023-12-22T11:49:51;8.48;;;2.13;;
52542;SDS011;38449;52.696;6.186;2023-12-22T11:52:18;1.42;;;0.73;;
52542;SDS011;38449;52.696;6.186;2023-12-22T11:54:52;3.33;;;1.10;;
52542;SDS011;38449;52.696;6.186;2023-12-22T11:57:38;4.50;;;1.33;;
52542;SDS011;38449;52.696;6.186;2023-12-22T12:00:06;4.32;;;1.00;;
52542;SDS011;38449;52.696;6.186;2023-12-22T12:02:36;4.47;;;1.10;;
52542;SDS011;38449;52.696;6.186;2023-12-22T12:05:06;2.65;;;0.95;;
52542;SDS011;38449;52.696;6.186;2023-12-22T12:07:37;3.95;;;0.88;;
52542;SDS011;38449;52.696;6.186;2023-12-22T12:10:07;2.00;;;1.00;;
52542;SDS011;38449;52.696;6.186;2023-12-22T12:12:34;4.07;;;0.93;;
52542;SDS011;38449;52.696;6.186;2023-12-22T12:15:09;3.63;;;1.10;;
52542;SDS011;38449;52.696;6.186;2023-12-22T12:17:38;3.22;;;1.35;;
52542;SDS011;38449;52.696;6.186;2023-12-22T12:20:06;3.35;;;1.20;;
52542;SDS011;38449;52.696;6.186;2023-12-22T12:22:35;2.13;;;0.95;;
52542;SDS011;38449;52.696;6.186;2023-12-22T12:25:10;4.03;;;1.23;;
52542;SDS011;38449;52.696;6.186;2023-12-22T12:27:37;2.70;;;0.90;;
52542;SDS011;38449;52.696;6.186;2023-12-22T12:30:11;4.57;;;1.30;;
52542;SDS011;38449;52.696;6.186;2023-12-22T12:32:42;4.25;;;1.70;;
52542;SDS011;38449;52.696;6.186;2023-12-22T12:35:10;4.65;;;1.15;;
52542;SDS011;38449;52.696;6.186;2023-12-22T12:37:37;7.80;;;1.33;;
52542;SDS011;38449;52.696;6.186;2023-12-22T12:40:06;4.47;;;1.20;;
52542;SDS011;38449;52.696;6.186;2023-12-22T12:42:35;2.40;;;0.82;;
52542;SDS011;38449;52.696;6.186;2023-12-22T12:45:05;7.28;;;1.45;;
52542;SDS011;38449;52.696;6.186;2023-12-22T12:47:33;3.58;;;1.10;;
52542;SDS011;38449;52.696;6.186;2023-12-22T12:50:00;3.38;;;1.00;;
52542;SDS011;38449;52.696;6.186;2023-12-22T12:52:27;2.15;;;0.90;;
52542;SDS011;38449;52.696;6.186;2023-12-22T12:54:53;5.90;;;1.45;;
52542;SDS011;38449;52.696;6.186;2023-12-22T12:57:20;4.30;;;1.30;;
52542;SDS011;38449;52.696;6.186;2023-12-22T12:59:50;4.13;;;1.10;;
52542;SDS011;38449;52.696;6.186;2023-12-22T13:02:17;4.35;;;1.00;;
52542;SDS011;38449;52.696;6.186;2023-12-22T13:04:44;3.17;;;1.10;;
52542;SDS011;38449;52.696;6.186;2023-12-22T13:07:11;5.07;;;1.10;;
52542;SDS011;38449;52.696;6.186;2023-12-22T13:09:40;2.85;;;1.05;;
52542;SDS011;38449;52.696;6.186;2023-12-22T13:12:10;3.40;;;0.90;;
52542;SDS011;38449;52.696;6.186;2023-12-22T13:14:36;4.30;;;1.33;;
52542;SDS011;38449;52.696;6.186;2023-12-22T13:17:02;3.17;;;0.85;;
52542;SDS011;38449;52.696;6.186;2023-12-22T13:19:29;4.32;;;1.40;;
52542;SDS011;38449;52.696;6.186;2023-12-22T13:21:56;4.97;;;0.95;;
52542;SDS011;38449;52.696;6.186;2023-12-22T13:24:22;2.90;;;0.98;;
52542;SDS011;38449;52.696;6.186;2023-12-22T13:27:00;6.93;;;1.30;;
52542;SDS011;38449;52.696;6.186;2023-12-22T13:29:27;5.10;;;1.20;;
52542;SDS011;38449;52.696;6.186;2023-12-22T13:31:54;3.38;;;1.00;;
52542;SDS011;38449;52.696;6.186;2023-12-22T13:34:26;4.80;;;1.30;;
52542;SDS011;38449;52.696;6.186;2023-12-22T13:36:52;7.75;;;1.60;;
52542;SDS011;38449;52.696;6.186;2023-12-22T13:39:19;4.97;;;1.23;;
52542;SDS011;38449;52.696;6.186;2023-12-22T13:41:52;7.20;;;1.48;;
52542;SDS011;38449;52.696;6.186;2023-12-22T13:44:18;5.88;;;1.30;;
52542;SDS011;38449;52.696;6.186;2023-12-22T13:46:45;3.63;;;1.17;;
52542;SDS011;38449;52.696;6.186;2023-12-22T13:49:12;7.03;;;1.48;;
52542;SDS011;38449;52.696;6.186;2023-12-22T13:51:42;8.27;;;1.70;;
52542;SDS011;38449;52.696;6.186;2023-12-22T13:54:10;4.70;;;1.40;;
52542;SDS011;38449;52.696;6.186;2023-12-22T13:56:37;7.05;;;1.23;;
52542;SDS011;38449;52.696;6.186;2023-12-22T13:59:06;5.93;;;1.25;;
52542;SDS011;38449;52.696;6.186;2023-12-22T14:01:32;5.65;;;1.70;;
52542;SDS011;38449;52.696;6.186;2023-12-22T14:04:01;5.20;;;1.00;;
52542;SDS011;38449;52.696;6.186;2023-12-22T14:06:28;7.85;;;1.75;;
52542;SDS011;38449;52.696;6.186;2023-12-22T14:08:55;5.15;;;1.05;;
52542;SDS011;38449;52.696;6.186;2023-12-22T14:11:22;9.07;;;1.55;;
52542;SDS011;38449;52.696;6.186;2023-12-22T14:13:49;6.78;;;1.15;;
52542;SDS011;38449;52.696;6.186;2023-12-22T14:16:15;6.45;;;1.42;;
52542;SDS011;38449;52.696;6.186;2023-12-22T14:18:42;8.50;;;2.15;;
52542;SDS011;38449;52.696;6.186;2023-12-22T14:21:08;4.57;;;1.55;;
52542;SDS011;38449;52.696;6.186;2023-12-22T14:23:36;3.10;;;0.82;;
52542;SDS011;38449;52.696;6.186;2023-12-22T14:26:02;2.25;;;0.95;;
52542;SDS011;38449;52.696;6.186;2023-12-22T14:28:30;2.65;;;0.80;;
52542;SDS011;38449;52.696;6.186;2023-12-22T14:30:56;4.53;;;0.98;;
52542;SDS011;38449;52.696;6.186;2023-12-22T14:33:23;2.40;;;1.20;;
52542;SDS011;38449;52.696;6.186;2023-12-22T14:35:49;5.75;;;1.27;;
52542;SDS011;38449;52.696;6.186;2023-12-22T14:38:16;3.88;;;1.17;;
52542;SDS011;38449;52.696;6.186;2023-12-22T14:40:42;2.70;;;1.00;;
52542;SDS011;38449;52.696;6.186;2023-12-22T14:43:09;4.00;;;1.27;;
52542;SDS011;38449;52.696;6.186;2023-12-22T14:45:35;3.08;;;1.15;;
52542;SDS011;38449;52.696;6.186;2023-12-22T14:48:01;2.95;;;0.90;;